Jhelum Weather



Jhelum's Current Weather

Temprature 14.54o overcast clouds

overcast clouds

Rain: 0 %

Min Temprature14.54o
Max Temprature14.54o
Humidity46
Wind Speed0.88 m/h
Sun Rise06:36:39
Sun Set17:59:36
Current Time: 27-Feb-2020 00:54:43
Lat/Lon: 32.93, 73.73




Jhelum's Geo Location



Jhelum's Weather Forecast

Time Overall Temp Min Temp Max Temp Humidity Wind Speed Rain
27-Feb-2020 (Thu)
02:00:00 overcast clouds 14.540 14.540 14.540 46 0.88 m/h 0 %
05:00:00 overcast clouds 13.800 13.800 13.800 52 0.57 m/h 0 %
08:00:00 overcast clouds 16.450 16.450 16.450 48 0.77 m/h 0 %
11:00:00 overcast clouds 22.990 22.990 22.990 33 0.99 m/h 0 %
14:00:00 scattered clouds 26.770 26.770 26.770 26 0.97 m/h 0 %
17:00:00 few clouds 26.240 26.240 26.240 30 1.06 m/h 0 %
20:00:00 clear sky 18.680 18.680 18.680 43 1.2 m/h 0 %
23:00:00 clear sky 17.930 17.930 17.930 43 2.4 m/h 0 %
28-Feb-2020 (Fri)
02:00:00 clear sky 15.190 15.190 15.190 50 0.66 m/h 0 %
05:00:00 light rain 13.980 13.980 13.980 60 0.85 m/h 13 %
08:00:00 light rain 17.260 17.260 17.260 53 0.4 m/h 44 %
11:00:00 light rain 20.800 20.800 20.800 42 1.08 m/h 19 %
14:00:00 overcast clouds 24.460 24.460 24.460 33 0.9 m/h 0 %
17:00:00 overcast clouds 24.210 24.210 24.210 37 1.37 m/h 0 %
20:00:00 light rain 17.640 17.640 17.640 51 0.46 m/h 19 %
23:00:00 light rain 17.640 17.640 17.640 59 0.87 m/h 100 %
29-Feb-2020 (Sat)
02:00:00 light rain 15.490 15.490 15.490 75 2.67 m/h 125 %
05:00:00 light rain 16.550 16.550 16.550 67 3.27 m/h 106 %
08:00:00 light rain 16.900 16.900 16.900 73 3.9 m/h 300 %
11:00:00 moderate rain 21.390 21.390 21.390 52 3.02 m/h 331 %
14:00:00 light rain 21.740 21.740 21.740 54 3.58 m/h 81 %
17:00:00 light rain 22.890 22.890 22.890 45 4.37 m/h 100 %
20:00:00 light rain 17.520 17.520 17.520 74 3.79 m/h 231 %
23:00:00 overcast clouds 16.410 16.410 16.410 73 2.86 m/h 0 %
01-Mar-2020 (Sun)
02:00:00 broken clouds 14.500 14.500 14.500 81 3.45 m/h 0 %
05:00:00 broken clouds 14.010 14.010 14.010 79 2.41 m/h 0 %
08:00:00 scattered clouds 16.180 16.180 16.180 66 2.45 m/h 0 %
11:00:00 scattered clouds 23.300 23.300 23.300 37 2.14 m/h 0 %
14:00:00 clear sky 25.890 25.890 25.890 30 1.68 m/h 0 %
17:00:00 clear sky 25.430 25.430 25.430 36 0.84 m/h 0 %
20:00:00 clear sky 18.950 18.950 18.950 50 3.76 m/h 0 %
23:00:00 clear sky 16.740 16.740 16.740 57 2.05 m/h 0 %
02-Mar-2020 (Mon)
02:00:00 clear sky 15.520 15.520 15.520 60 1.96 m/h 0 %
05:00:00 clear sky 14.830 14.830 14.830 60 2.23 m/h 0 %
08:00:00 overcast clouds 17.520 17.520 17.520 53 1.81 m/h 0 %
11:00:00 broken clouds 23.820 23.820 23.820 34 1.78 m/h 0 %
14:00:00 broken clouds 26.900 26.900 26.900 24 0.49 m/h 0 %
17:00:00 scattered clouds 26.060 26.060 26.060 30 1.03 m/h 0 %
20:00:00 clear sky 18.930 18.930 18.930 41 1.92 m/h 0 %
23:00:00 clear sky 16.690 16.690 16.690 49 1.25 m/h 0 %

Famous Cities (61)